sensor_id;sensor_type;location;lat;lon;timestamp;P1;durP1;ratioP1;P2;durP2;ratioP2
31306;SDS011;17935;51.120;13.132;2023-04-25T00:00:30;8.07;;;5.63;;
31306;SDS011;17935;51.120;13.132;2023-04-25T00:02:56;11.10;;;6.43;;
31306;SDS011;17935;51.120;13.132;2023-04-25T00:05:22;11.85;;;6.63;;
31306;SDS011;17935;51.120;13.132;2023-04-25T00:07:49;12.23;;;6.90;;
31306;SDS011;17935;51.120;13.132;2023-04-25T00:10:15;9.48;;;6.70;;
31306;SDS011;17935;51.120;13.132;2023-04-25T00:12:41;12.32;;;6.82;;
31306;SDS011;17935;51.120;13.132;2023-04-25T00:15:07;11.23;;;6.80;;
31306;SDS011;17935;51.120;13.132;2023-04-25T00:17:34;8.93;;;6.60;;
31306;SDS011;17935;51.120;13.132;2023-04-25T00:20:00;13.38;;;6.38;;
31306;SDS011;17935;51.120;13.132;2023-04-25T00:22:29;9.40;;;7.05;;
31306;SDS011;17935;51.120;13.132;2023-04-25T00:24:55;11.95;;;7.53;;
31306;SDS011;17935;51.120;13.132;2023-04-25T00:27:24;12.52;;;7.05;;
31306;SDS011;17935;51.120;13.132;2023-04-25T00:29:50;10.10;;;6.53;;
31306;SDS011;17935;51.120;13.132;2023-04-25T00:32:16;15.68;;;7.47;;
31306;SDS011;17935;51.120;13.132;2023-04-25T00:34:42;11.63;;;7.70;;
31306;SDS011;17935;51.120;13.132;2023-04-25T00:37:08;11.90;;;7.82;;
31306;SDS011;17935;51.120;13.132;2023-04-25T00:39:35;14.77;;;7.85;;
31306;SDS011;17935;51.120;13.132;2023-04-25T00:42:01;13.10;;;7.65;;
31306;SDS011;17935;51.120;13.132;2023-04-25T00:44:29;12.57;;;7.45;;
31306;SDS011;17935;51.120;13.132;2023-04-25T00:46:55;9.43;;;7.63;;
31306;SDS011;17935;51.120;13.132;2023-04-25T00:49:21;10.73;;;7.20;;
31306;SDS011;17935;51.120;13.132;2023-04-25T00:51:47;15.45;;;8.73;;
31306;SDS011;17935;51.120;13.132;2023-04-25T00:54:13;11.02;;;7.53;;
31306;SDS011;17935;51.120;13.132;2023-04-25T00:56:40;13.15;;;8.80;;
31306;SDS011;17935;51.120;13.132;2023-04-25T00:59:06;11.75;;;7.85;;
31306;SDS011;17935;51.120;13.132;2023-04-25T01:01:32;10.60;;;7.93;;
31306;SDS011;17935;51.120;13.132;2023-04-25T01:03:58;14.10;;;8.07;;
31306;SDS011;17935;51.120;13.132;2023-04-25T01:06:24;13.23;;;7.88;;
31306;SDS011;17935;51.120;13.132;2023-04-25T01:08:51;11.68;;;7.90;;
31306;SDS011;17935;51.120;13.132;2023-04-25T01:11:17;11.02;;;8.05;;
31306;SDS011;17935;51.120;13.132;2023-04-25T01:13:43;14.18;;;8.15;;
31306;SDS011;17935;51.120;13.132;2023-04-25T01:16:09;13.40;;;8.40;;
31306;SDS011;17935;51.120;13.132;2023-04-25T01:18:36;13.27;;;7.65;;
31306;SDS011;17935;51.120;13.132;2023-04-25T01:21:09;12.95;;;7.60;;
31306;SDS011;17935;51.120;13.132;2023-04-25T01:23:36;13.18;;;8.27;;
31306;SDS011;17935;51.120;13.132;2023-04-25T01:26:02;12.52;;;7.80;;
31306;SDS011;17935;51.120;13.132;2023-04-25T01:28:28;15.15;;;8.63;;
31306;SDS011;17935;51.120;13.132;2023-04-25T01:30:54;13.32;;;7.97;;
31306;SDS011;17935;51.120;13.132;2023-04-25T01:33:20;12.75;;;8.32;;
31306;SDS011;17935;51.120;13.132;2023-04-25T01:35:47;17.08;;;9.15;;
31306;SDS011;17935;51.120;13.132;2023-04-25T01:38:13;20.20;;;8.77;;
31306;SDS011;17935;51.120;13.132;2023-04-25T01:40:39;17.45;;;8.57;;
31306;SDS011;17935;51.120;13.132;2023-04-25T01:43:06;10.15;;;8.15;;
31306;SDS011;17935;51.120;13.132;2023-04-25T01:45:35;13.13;;;8.95;;
31306;SDS011;17935;51.120;13.132;2023-04-25T01:48:04;18.70;;;9.43;;
31306;SDS011;17935;51.120;13.132;2023-04-25T01:50:30;16.50;;;8.85;;
31306;SDS011;17935;51.120;13.132;2023-04-25T01:52:56;12.38;;;8.65;;
31306;SDS011;17935;51.120;13.132;2023-04-25T01:55:22;12.30;;;8.82;;
31306;SDS011;17935;51.120;13.132;2023-04-25T01:57:48;10.95;;;8.50;;
31306;SDS011;17935;51.120;13.132;2023-04-25T02:00:14;20.17;;;8.70;;
31306;SDS011;17935;51.120;13.132;2023-04-25T02:02:40;14.35;;;9.65;;
31306;SDS011;17935;51.120;13.132;2023-04-25T02:05:06;14.95;;;9.02;;
31306;SDS011;17935;51.120;13.132;2023-04-25T02:07:32;15.30;;;9.15;;
31306;SDS011;17935;51.120;13.132;2023-04-25T02:09:58;15.82;;;9.35;;
31306;SDS011;17935;51.120;13.132;2023-04-25T02:12:24;13.25;;;8.77;;
31306;SDS011;17935;51.120;13.132;2023-04-25T02:14:51;11.88;;;8.48;;
31306;SDS011;17935;51.120;13.132;2023-04-25T02:17:17;17.13;;;9.00;;
31306;SDS011;17935;51.120;13.132;2023-04-25T02:19:43;14.90;;;8.50;;
31306;SDS011;17935;51.120;13.132;2023-04-25T02:22:09;15.55;;;8.63;;
31306;SDS011;17935;51.120;13.132;2023-04-25T02:24:35;16.15;;;10.05;;
31306;SDS011;17935;51.120;13.132;2023-04-25T02:27:01;13.35;;;9.60;;
31306;SDS011;17935;51.120;13.132;2023-04-25T02:29:27;21.73;;;9.02;;
31306;SDS011;17935;51.120;13.132;2023-04-25T02:31:53;13.73;;;9.25;;
31306;SDS011;17935;51.120;13.132;2023-04-25T02:34:19;21.27;;;10.82;;
31306;SDS011;17935;51.120;13.132;2023-04-25T02:36:45;20.00;;;10.88;;
31306;SDS011;17935;51.120;13.132;2023-04-25T02:39:11;17.77;;;10.80;;
31306;SDS011;17935;51.120;13.132;2023-04-25T02:41:37;17.85;;;10.23;;
31306;SDS011;17935;51.120;13.132;2023-04-25T02:44:03;17.33;;;9.07;;
31306;SDS011;17935;51.120;13.132;2023-04-25T02:46:29;17.75;;;10.73;;
31306;SDS011;17935;51.120;13.132;2023-04-25T02:48:55;18.92;;;11.18;;
31306;SDS011;17935;51.120;13.132;2023-04-25T02:51:21;16.80;;;10.18;;
31306;SDS011;17935;51.120;13.132;2023-04-25T02:53:46;19.20;;;11.32;;
31306;SDS011;17935;51.120;13.132;2023-04-25T02:56:12;22.13;;;11.88;;
31306;SDS011;17935;51.120;13.132;2023-04-25T02:58:38;18.48;;;11.48;;
31306;SDS011;17935;51.120;13.132;2023-04-25T03:01:04;17.63;;;11.07;;
31306;SDS011;17935;51.120;13.132;2023-04-25T03:03:30;21.23;;;10.90;;
31306;SDS011;17935;51.120;13.132;2023-04-25T03:05:56;20.08;;;11.73;;
31306;SDS011;17935;51.120;13.132;2023-04-25T03:08:22;22.65;;;12.60;;
31306;SDS011;17935;51.120;13.132;2023-04-25T03:10:48;23.25;;;12.18;;
31306;SDS011;17935;51.120;13.132;2023-04-25T03:13:16;23.80;;;13.15;;
31306;SDS011;17935;51.120;13.132;2023-04-25T03:15:42;22.60;;;12.68;;
31306;SDS011;17935;51.120;13.132;2023-04-25T03:18:08;24.10;;;12.13;;
31306;SDS011;17935;51.120;13.132;2023-04-25T03:20:34;24.08;;;12.75;;
31306;SDS011;17935;51.120;13.132;2023-04-25T03:23:00;28.67;;;12.73;;
31306;SDS011;17935;51.120;13.132;2023-04-25T03:25:25;31.00;;;13.45;;
31306;SDS011;17935;51.120;13.132;2023-04-25T03:27:51;28.13;;;14.02;;
31306;SDS011;17935;51.120;13.132;2023-04-25T03:30:17;25.08;;;13.23;;
31306;SDS011;17935;51.120;13.132;2023-04-25T03:32:43;20.83;;;12.65;;
31306;SDS011;17935;51.120;13.132;2023-04-25T03:35:09;24.80;;;12.23;;
31306;SDS011;17935;51.120;13.132;2023-04-25T03:37:35;20.45;;;11.38;;
31306;SDS011;17935;51.120;13.132;2023-04-25T03:40:01;21.27;;;11.82;;
31306;SDS011;17935;51.120;13.132;2023-04-25T03:42:27;24.85;;;13.45;;
31306;SDS011;17935;51.120;13.132;2023-04-25T03:44:53;27.60;;;13.43;;
31306;SDS011;17935;51.120;13.132;2023-04-25T03:47:19;22.08;;;11.73;;
31306;SDS011;17935;51.120;13.132;2023-04-25T03:49:45;24.17;;;12.07;;
31306;SDS011;17935;51.120;13.132;2023-04-25T03:52:11;22.63;;;12.57;;
31306;SDS011;17935;51.120;13.132;2023-04-25T03:54:37;23.65;;;12.43;;
31306;SDS011;17935;51.120;13.132;2023-04-25T03:57:02;18.42;;;11.98;;
31306;SDS011;17935;51.120;13.132;2023-04-25T03:59:28;27.88;;;11.88;;
31306;SDS011;17935;51.120;13.132;2023-04-25T04:01:55;20.45;;;10.98;;
31306;SDS011;17935;51.120;13.132;2023-04-25T04:04:21;20.60;;;12.30;;
31306;SDS011;17935;51.120;13.132;2023-04-25T04:06:47;17.17;;;11.63;;
31306;SDS011;17935;51.120;13.132;2023-04-25T04:09:13;20.10;;;12.23;;
31306;SDS011;17935;51.120;13.132;2023-04-25T04:11:40;21.42;;;12.50;;
31306;SDS011;17935;51.120;13.132;2023-04-25T04:14:06;20.42;;;12.55;;
31306;SDS011;17935;51.120;13.132;2023-04-25T04:16:32;20.48;;;11.43;;
31306;SDS011;17935;51.120;13.132;2023-04-25T04:18:58;21.45;;;10.77;;
31306;SDS011;17935;51.120;13.132;2023-04-25T04:21:24;21.52;;;11.32;;
31306;SDS011;17935;51.120;13.132;2023-04-25T04:23:52;18.85;;;11.77;;
31306;SDS011;17935;51.120;13.132;2023-04-25T04:26:19;20.38;;;10.57;;
31306;SDS011;17935;51.120;13.132;2023-04-25T04:28:48;20.45;;;9.75;;
31306;SDS011;17935;51.120;13.132;2023-04-25T04:31:15;15.57;;;9.18;;
31306;SDS011;17935;51.120;13.132;2023-04-25T04:33:43;10.93;;;6.85;;
31306;SDS011;17935;51.120;13.132;2023-04-25T04:36:09;12.45;;;7.25;;
31306;SDS011;17935;51.120;13.132;2023-04-25T04:38:35;8.65;;;5.95;;
31306;SDS011;17935;51.120;13.132;2023-04-25T04:41:01;9.05;;;5.35;;
31306;SDS011;17935;51.120;13.132;2023-04-25T04:43:28;7.97;;;5.15;;
31306;SDS011;17935;51.120;13.132;2023-04-25T04:45:54;6.90;;;4.30;;
31306;SDS011;17935;51.120;13.132;2023-04-25T04:48:23;8.60;;;4.60;;
31306;SDS011;17935;51.120;13.132;2023-04-25T04:50:49;9.77;;;4.90;;
31306;SDS011;17935;51.120;13.132;2023-04-25T04:53:15;7.78;;;4.72;;
31306;SDS011;17935;51.120;13.132;2023-04-25T04:55:41;8.68;;;5.28;;
31306;SDS011;17935;51.120;13.132;2023-04-25T04:58:07;8.75;;;4.95;;
31306;SDS011;17935;51.120;13.132;2023-04-25T05:00:34;6.80;;;4.65;;
31306;SDS011;17935;51.120;13.132;2023-04-25T05:03:00;9.68;;;4.32;;
31306;SDS011;17935;51.120;13.132;2023-04-25T05:05:25;8.65;;;4.55;;
31306;SDS011;17935;51.120;13.132;2023-04-25T05:07:51;6.68;;;4.20;;
31306;SDS011;17935;51.120;13.132;2023-04-25T05:10:18;5.43;;;4.10;;
31306;SDS011;17935;51.120;13.132;2023-04-25T05:12:45;5.85;;;4.10;;
31306;SDS011;17935;51.120;13.132;2023-04-25T05:15:11;7.18;;;3.92;;
31306;SDS011;17935;51.120;13.132;2023-04-25T05:17:37;9.95;;;4.32;;
31306;SDS011;17935;51.120;13.132;2023-04-25T05:20:04;5.93;;;3.58;;
31306;SDS011;17935;51.120;13.132;2023-04-25T05:22:30;8.15;;;4.78;;
31306;SDS011;17935;51.120;13.132;2023-04-25T05:24:56;9.07;;;4.10;;
31306;SDS011;17935;51.120;13.132;2023-04-25T05:27:22;8.63;;;4.45;;
31306;SDS011;17935;51.120;13.132;2023-04-25T05:29:48;12.25;;;4.28;;
31306;SDS011;17935;51.120;13.132;2023-04-25T05:32:14;7.13;;;4.22;;
31306;SDS011;17935;51.120;13.132;2023-04-25T05:34:40;7.50;;;4.72;;
31306;SDS011;17935;51.120;13.132;2023-04-25T05:37:06;6.47;;;3.85;;
31306;SDS011;17935;51.120;13.132;2023-04-25T05:39:32;11.10;;;4.72;;
31306;SDS011;17935;51.120;13.132;2023-04-25T05:41:58;9.75;;;4.60;;
31306;SDS011;17935;51.120;13.132;2023-04-25T05:44:24;6.93;;;4.22;;
31306;SDS011;17935;51.120;13.132;2023-04-25T05:46:51;7.43;;;4.00;;
31306;SDS011;17935;51.120;13.132;2023-04-25T05:49:17;10.07;;;4.30;;
31306;SDS011;17935;51.120;13.132;2023-04-25T05:51:43;8.88;;;4.13;;
31306;SDS011;17935;51.120;13.132;2023-04-25T05:54:09;5.60;;;4.28;;
31306;SDS011;17935;51.120;13.132;2023-04-25T05:56:35;6.18;;;4.82;;
31306;SDS011;17935;51.120;13.132;2023-04-25T05:59:00;7.30;;;3.67;;
31306;SDS011;17935;51.120;13.132;2023-04-25T06:01:26;7.53;;;4.13;;
31306;SDS011;17935;51.120;13.132;2023-04-25T06:03:52;12.30;;;4.60;;
31306;SDS011;17935;51.120;13.132;2023-04-25T06:06:18;6.45;;;3.95;;
31306;SDS011;17935;51.120;13.132;2023-04-25T06:08:44;10.65;;;4.15;;
31306;SDS011;17935;51.120;13.132;2023-04-25T06:11:10;6.22;;;3.58;;
31306;SDS011;17935;51.120;13.132;2023-04-25T06:13:36;7.28;;;4.32;;
31306;SDS011;17935;51.120;13.132;2023-04-25T06:16:02;6.80;;;3.88;;
31306;SDS011;17935;51.120;13.132;2023-04-25T06:18:28;7.20;;;4.38;;
31306;SDS011;17935;51.120;13.132;2023-04-25T06:20:54;9.35;;;4.03;;
31306;SDS011;17935;51.120;13.132;2023-04-25T06:23:20;6.20;;;3.72;;
31306;SDS011;17935;51.120;13.132;2023-04-25T06:25:46;8.45;;;4.38;;
31306;SDS011;17935;51.120;13.132;2023-04-25T06:28:12;9.32;;;4.50;;
31306;SDS011;17935;51.120;13.132;2023-04-25T06:30:38;5.50;;;3.72;;
31306;SDS011;17935;51.120;13.132;2023-04-25T06:33:04;7.68;;;3.95;;
31306;SDS011;17935;51.120;13.132;2023-04-25T06:35:30;5.25;;;3.80;;
31306;SDS011;17935;51.120;13.132;2023-04-25T06:37:55;7.80;;;4.82;;
31306;SDS011;17935;51.120;13.132;2023-04-25T06:40:21;6.75;;;3.60;;
31306;SDS011;17935;51.120;13.132;2023-04-25T06:42:47;5.18;;;3.60;;
31306;SDS011;17935;51.120;13.132;2023-04-25T06:45:13;11.93;;;4.43;;
31306;SDS011;17935;51.120;13.132;2023-04-25T06:47:39;7.18;;;3.88;;
31306;SDS011;17935;51.120;13.132;2023-04-25T06:50:05;10.27;;;3.95;;
31306;SDS011;17935;51.120;13.132;2023-04-25T06:52:31;7.32;;;3.45;;
31306;SDS011;17935;51.120;13.132;2023-04-25T06:54:57;6.13;;;3.95;;
31306;SDS011;17935;51.120;13.132;2023-04-25T06:57:23;10.35;;;4.00;;
31306;SDS011;17935;51.120;13.132;2023-04-25T06:59:49;7.35;;;3.60;;
31306;SDS011;17935;51.120;13.132;2023-04-25T07:02:15;8.50;;;3.90;;
31306;SDS011;17935;51.120;13.132;2023-04-25T07:04:41;5.93;;;3.80;;
31306;SDS011;17935;51.120;13.132;2023-04-25T07:07:07;7.43;;;3.88;;
31306;SDS011;17935;51.120;13.132;2023-04-25T07:09:33;9.05;;;3.85;;
31306;SDS011;17935;51.120;13.132;2023-04-25T07:11:59;9.88;;;3.33;;
31306;SDS011;17935;51.120;13.132;2023-04-25T07:14:26;6.38;;;3.70;;
31306;SDS011;17935;51.120;13.132;2023-04-25T07:16:52;6.25;;;3.33;;
31306;SDS011;17935;51.120;13.132;2023-04-25T07:19:20;5.63;;;3.53;;
31306;SDS011;17935;51.120;13.132;2023-04-25T07:21:46;5.85;;;3.72;;
31306;SDS011;17935;51.120;13.132;2023-04-25T07:24:12;5.47;;;2.90;;
31306;SDS011;17935;51.120;13.132;2023-04-25T07:26:38;7.63;;;3.40;;
31306;SDS011;17935;51.120;13.132;2023-04-25T07:29:04;9.93;;;4.30;;
31306;SDS011;17935;51.120;13.132;2023-04-25T07:31:30;8.27;;;3.85;;
31306;SDS011;17935;51.120;13.132;2023-04-25T07:33:56;8.05;;;3.83;;
31306;SDS011;17935;51.120;13.132;2023-04-25T07:36:22;6.57;;;3.97;;
31306;SDS011;17935;51.120;13.132;2023-04-25T07:38:48;8.18;;;4.20;;
31306;SDS011;17935;51.120;13.132;2023-04-25T07:41:13;6.65;;;4.20;;
31306;SDS011;17935;51.120;13.132;2023-04-25T07:43:39;8.23;;;4.22;;
31306;SDS011;17935;51.120;13.132;2023-04-25T07:46:05;8.55;;;5.43;;
31306;SDS011;17935;51.120;13.132;2023-04-25T07:48:31;8.13;;;4.30;;
31306;SDS011;17935;51.120;13.132;2023-04-25T07:50:57;6.95;;;3.83;;
31306;SDS011;17935;51.120;13.132;2023-04-25T07:53:23;9.18;;;3.80;;
31306;SDS011;17935;51.120;13.132;2023-04-25T07:55:49;8.25;;;3.97;;
31306;SDS011;17935;51.120;13.132;2023-04-25T07:58:15;5.35;;;3.90;;
31306;SDS011;17935;51.120;13.132;2023-04-25T08:00:46;10.73;;;4.35;;
31306;SDS011;17935;51.120;13.132;2023-04-25T08:03:12;7.82;;;4.30;;
31306;SDS011;17935;51.120;13.132;2023-04-25T08:05:38;7.38;;;4.28;;
31306;SDS011;17935;51.120;13.132;2023-04-25T08:08:04;7.45;;;4.43;;
31306;SDS011;17935;51.120;13.132;2023-04-25T08:10:31;6.03;;;4.53;;
31306;SDS011;17935;51.120;13.132;2023-04-25T08:12:57;7.22;;;4.40;;
31306;SDS011;17935;51.120;13.132;2023-04-25T08:15:23;8.65;;;4.32;;
31306;SDS011;17935;51.120;13.132;2023-04-25T08:17:50;12.75;;;3.90;;
31306;SDS011;17935;51.120;13.132;2023-04-25T08:20:16;8.82;;;4.22;;
31306;SDS011;17935;51.120;13.132;2023-04-25T08:22:42;7.50;;;4.70;;
31306;SDS011;17935;51.120;13.132;2023-04-25T08:25:08;9.85;;;4.75;;
31306;SDS011;17935;51.120;13.132;2023-04-25T08:27:34;11.98;;;4.85;;
31306;SDS011;17935;51.120;13.132;2023-04-25T08:30:00;11.50;;;5.00;;
31306;SDS011;17935;51.120;13.132;2023-04-25T08:32:27;12.98;;;5.50;;
31306;SDS011;17935;51.120;13.132;2023-04-25T08:34:53;6.45;;;5.28;;
31306;SDS011;17935;51.120;13.132;2023-04-25T08:37:20;11.07;;;5.32;;
31306;SDS011;17935;51.120;13.132;2023-04-25T08:39:46;9.93;;;5.93;;
31306;SDS011;17935;51.120;13.132;2023-04-25T08:42:17;11.05;;;5.60;;
31306;SDS011;17935;51.120;13.132;2023-04-25T08:44:44;9.77;;;5.65;;
31306;SDS011;17935;51.120;13.132;2023-04-25T08:47:11;10.80;;;6.10;;
31306;SDS011;17935;51.120;13.132;2023-04-25T08:49:37;8.70;;;5.22;;
31306;SDS011;17935;51.120;13.132;2023-04-25T08:52:04;13.05;;;6.80;;
31306;SDS011;17935;51.120;13.132;2023-04-25T08:54:31;13.05;;;6.10;;
31306;SDS011;17935;51.120;13.132;2023-04-25T08:56:57;11.68;;;5.93;;
31306;SDS011;17935;51.120;13.132;2023-04-25T08:59:26;15.52;;;6.85;;
31306;SDS011;17935;51.120;13.132;2023-04-25T09:01:52;13.65;;;5.88;;
31306;SDS011;17935;51.120;13.132;2023-04-25T09:04:18;9.32;;;6.53;;
31306;SDS011;17935;51.120;13.132;2023-04-25T09:06:45;7.60;;;5.88;;
31306;SDS011;17935;51.120;13.132;2023-04-25T09:09:11;11.02;;;6.28;;
31306;SDS011;17935;51.120;13.132;2023-04-25T09:11:37;7.95;;;5.57;;
31306;SDS011;17935;51.120;13.132;2023-04-25T09:14:19;11.68;;;6.18;;
31306;SDS011;17935;51.120;13.132;2023-04-25T09:16:56;10.90;;;6.28;;
31306;SDS011;17935;51.120;13.132;2023-04-25T09:21:58;10.50;;;6.03;;
31306;SDS011;17935;51.120;13.132;2023-04-25T09:24:35;15.32;;;6.90;;
31306;SDS011;17935;51.120;13.132;2023-04-25T09:27:03;8.52;;;6.18;;
31306;SDS011;17935;51.120;13.132;2023-04-25T09:29:32;10.32;;;6.10;;
31306;SDS011;17935;51.120;13.132;2023-04-25T09:32:11;14.07;;;7.07;;
31306;SDS011;17935;51.120;13.132;2023-04-25T09:34:41;11.45;;;5.68;;
31306;SDS011;17935;51.120;13.132;2023-04-25T09:37:10;6.55;;;5.28;;
31306;SDS011;17935;51.120;13.132;2023-04-25T09:39:37;13.52;;;5.70;;
31306;SDS011;17935;51.120;13.132;2023-04-25T09:42:03;7.63;;;4.93;;
31306;SDS011;17935;51.120;13.132;2023-04-25T09:44:29;10.85;;;6.10;;
31306;SDS011;17935;51.120;13.132;2023-04-25T09:46:55;9.88;;;5.55;;
31306;SDS011;17935;51.120;13.132;2023-04-25T09:49:22;14.43;;;6.57;;
31306;SDS011;17935;51.120;13.132;2023-04-25T09:51:54;11.93;;;6.28;;
31306;SDS011;17935;51.120;13.132;2023-04-25T09:56:48;12.00;;;7.88;;
31306;SDS011;17935;51.120;13.132;2023-04-25T09:59:14;17.67;;;8.13;;
31306;SDS011;17935;51.120;13.132;2023-04-25T10:01:40;13.02;;;7.47;;
31306;SDS011;17935;51.120;13.132;2023-04-25T10:04:09;15.70;;;7.85;;
31306;SDS011;17935;51.120;13.132;2023-04-25T10:06:36;12.35;;;7.38;;
31306;SDS011;17935;51.120;13.132;2023-04-25T10:09:03;12.20;;;5.88;;
31306;SDS011;17935;51.120;13.132;2023-04-25T10:11:29;12.90;;;5.25;;
31306;SDS011;17935;51.120;13.132;2023-04-25T10:13:56;7.05;;;3.85;;
31306;SDS011;17935;51.120;13.132;2023-04-25T10:16:22;9.88;;;4.88;;
31306;SDS011;17935;51.120;13.132;2023-04-25T10:18:48;10.90;;;4.18;;
31306;SDS011;17935;51.120;13.132;2023-04-25T10:21:15;6.47;;;3.35;;
31306;SDS011;17935;51.120;13.132;2023-04-25T10:23:41;8.35;;;3.80;;
31306;SDS011;17935;51.120;13.132;2023-04-25T10:26:07;6.18;;;3.58;;
31306;SDS011;17935;51.120;13.132;2023-04-25T10:31:25;10.80;;;3.30;;
31306;SDS011;17935;51.120;13.132;2023-04-25T10:33:52;7.25;;;2.88;;
31306;SDS011;17935;51.120;13.132;2023-04-25T10:36:19;6.78;;;3.55;;
31306;SDS011;17935;51.120;13.132;2023-04-25T10:38:49;9.07;;;2.80;;
31306;SDS011;17935;51.120;13.132;2023-04-25T10:41:19;10.27;;;2.80;;
31306;SDS011;17935;51.120;13.132;2023-04-25T10:43:46;11.18;;;2.53;;
31306;SDS011;17935;51.120;13.132;2023-04-25T10:46:22;8.40;;;2.97;;
31306;SDS011;17935;51.120;13.132;2023-04-25T10:48:55;7.63;;;2.40;;
31306;SDS011;17935;51.120;13.132;2023-04-25T10:51:22;6.18;;;2.95;;
31306;SDS011;17935;51.120;13.132;2023-04-25T10:53:58;5.03;;;2.05;;
31306;SDS011;17935;51.120;13.132;2023-04-25T10:56:26;6.93;;;2.45;;
31306;SDS011;17935;51.120;13.132;2023-04-25T10:58:52;8.50;;;2.63;;
31306;SDS011;17935;51.120;13.132;2023-04-25T11:01:28;14.48;;;3.20;;
31306;SDS011;17935;51.120;13.132;2023-04-25T11:04:00;7.63;;;3.22;;
31306;SDS011;17935;51.120;13.132;2023-04-25T11:06:29;9.57;;;3.60;;
31306;SDS011;17935;51.120;13.132;2023-04-25T11:08:57;14.35;;;3.72;;
31306;SDS011;17935;51.120;13.132;2023-04-25T11:11:25;12.25;;;3.85;;
31306;SDS011;17935;51.120;13.132;2023-04-25T11:13:51;7.57;;;3.50;;
31306;SDS011;17935;51.120;13.132;2023-04-25T11:16:17;12.18;;;3.38;;
31306;SDS011;17935;51.120;13.132;2023-04-25T11:18:43;10.32;;;3.58;;
31306;SDS011;17935;51.120;13.132;2023-04-25T11:21:10;15.05;;;4.45;;
31306;SDS011;17935;51.120;13.132;2023-04-25T11:23:36;10.40;;;3.85;;
31306;SDS011;17935;51.120;13.132;2023-04-25T11:26:05;9.38;;;4.07;;
31306;SDS011;17935;51.120;13.132;2023-04-25T11:28:32;6.53;;;3.17;;
31306;SDS011;17935;51.120;13.132;2023-04-25T11:30:58;9.77;;;4.15;;
31306;SDS011;17935;51.120;13.132;2023-04-25T11:33:24;15.40;;;4.15;;
31306;SDS011;17935;51.120;13.132;2023-04-25T11:35:52;9.90;;;3.40;;
31306;SDS011;17935;51.120;13.132;2023-04-25T11:38:19;9.07;;;3.63;;
31306;SDS011;17935;51.120;13.132;2023-04-25T11:40:49;10.68;;;3.80;;
31306;SDS011;17935;51.120;13.132;2023-04-25T11:43:15;12.13;;;4.13;;
31306;SDS011;17935;51.120;13.132;2023-04-25T11:45:41;10.63;;;4.20;;
31306;SDS011;17935;51.120;13.132;2023-04-25T11:48:07;7.07;;;3.40;;
31306;SDS011;17935;51.120;13.132;2023-04-25T11:50:33;12.90;;;4.18;;
31306;SDS011;17935;51.120;13.132;2023-04-25T11:53:00;10.95;;;3.58;;
31306;SDS011;17935;51.120;13.132;2023-04-25T11:55:26;10.30;;;4.05;;
31306;SDS011;17935;51.120;13.132;2023-04-25T11:57:51;13.52;;;4.40;;
31306;SDS011;17935;51.120;13.132;2023-04-25T12:00:18;9.93;;;3.92;;
31306;SDS011;17935;51.120;13.132;2023-04-25T12:02:51;10.63;;;3.67;;
31306;SDS011;17935;51.120;13.132;2023-04-25T12:05:18;11.75;;;4.35;;
31306;SDS011;17935;51.120;13.132;2023-04-25T12:07:45;15.48;;;4.43;;
31306;SDS011;17935;51.120;13.132;2023-04-25T12:10:12;16.75;;;4.20;;
31306;SDS011;17935;51.120;13.132;2023-04-25T12:12:41;14.10;;;4.80;;
31306;SDS011;17935;51.120;13.132;2023-04-25T12:15:10;14.82;;;4.47;;
31306;SDS011;17935;51.120;13.132;2023-04-25T12:17:38;9.88;;;4.15;;
31306;SDS011;17935;51.120;13.132;2023-04-25T12:20:12;19.45;;;5.53;;
31306;SDS011;17935;51.120;13.132;2023-04-25T12:22:39;16.63;;;4.38;;
31306;SDS011;17935;51.120;13.132;2023-04-25T12:25:09;20.70;;;4.95;;
31306;SDS011;17935;51.120;13.132;2023-04-25T12:27:35;17.67;;;5.32;;
31306;SDS011;17935;51.120;13.132;2023-04-25T12:30:02;16.08;;;5.13;;
31306;SDS011;17935;51.120;13.132;2023-04-25T12:32:28;19.65;;;5.70;;
31306;SDS011;17935;51.120;13.132;2023-04-25T12:34:54;16.55;;;4.85;;
31306;SDS011;17935;51.120;13.132;2023-04-25T12:37:20;15.75;;;5.22;;
31306;SDS011;17935;51.120;13.132;2023-04-25T12:39:46;13.35;;;4.82;;
31306;SDS011;17935;51.120;13.132;2023-04-25T12:42:12;10.32;;;4.63;;
31306;SDS011;17935;51.120;13.132;2023-04-25T12:44:38;18.52;;;4.78;;
31306;SDS011;17935;51.120;13.132;2023-04-25T12:47:04;14.63;;;5.55;;
31306;SDS011;17935;51.120;13.132;2023-04-25T12:49:30;17.95;;;5.25;;
31306;SDS011;17935;51.120;13.132;2023-04-25T12:51:56;18.00;;;5.35;;
31306;SDS011;17935;51.120;13.132;2023-04-25T12:54:22;20.67;;;5.80;;
31306;SDS011;17935;51.120;13.132;2023-04-25T12:56:49;22.38;;;5.43;;
31306;SDS011;17935;51.120;13.132;2023-04-25T12:59:15;13.32;;;4.80;;
31306;SDS011;17935;51.120;13.132;2023-04-25T13:01:41;20.00;;;6.03;;
31306;SDS011;17935;51.120;13.132;2023-04-25T13:04:09;19.83;;;6.07;;
31306;SDS011;17935;51.120;13.132;2023-04-25T13:06:35;14.40;;;5.63;;
31306;SDS011;17935;51.120;13.132;2023-04-25T13:09:01;22.95;;;6.05;;
31306;SDS011;17935;51.120;13.132;2023-04-25T13:11:28;14.68;;;5.28;;
31306;SDS011;17935;51.120;13.132;2023-04-25T13:13:54;16.25;;;4.82;;
31306;SDS011;17935;51.120;13.132;2023-04-25T13:16:20;16.25;;;5.53;;
31306;SDS011;17935;51.120;13.132;2023-04-25T13:18:46;24.35;;;5.25;;
31306;SDS011;17935;51.120;13.132;2023-04-25T13:21:12;14.65;;;4.85;;
31306;SDS011;17935;51.120;13.132;2023-04-25T13:23:38;27.73;;;5.60;;
31306;SDS011;17935;51.120;13.132;2023-04-25T13:26:04;19.33;;;5.50;;
31306;SDS011;17935;51.120;13.132;2023-04-25T13:28:30;21.27;;;6.78;;
31306;SDS011;17935;51.120;13.132;2023-04-25T13:30:56;16.60;;;5.72;;
31306;SDS011;17935;51.120;13.132;2023-04-25T13:33:22;15.73;;;5.25;;
31306;SDS011;17935;51.120;13.132;2023-04-25T13:35:49;16.60;;;4.80;;
31306;SDS011;17935;51.120;13.132;2023-04-25T13:38:22;21.83;;;5.30;;
31306;SDS011;17935;51.120;13.132;2023-04-25T13:40:49;21.98;;;5.82;;
31306;SDS011;17935;51.120;13.132;2023-04-25T13:43:17;13.98;;;4.88;;
31306;SDS011;17935;51.120;13.132;2023-04-25T13:45:43;13.70;;;5.55;;
31306;SDS011;17935;51.120;13.132;2023-04-25T13:48:09;16.17;;;4.43;;
31306;SDS011;17935;51.120;13.132;2023-04-25T13:50:35;14.40;;;3.90;;
31306;SDS011;17935;51.120;13.132;2023-04-25T13:53:01;15.23;;;4.65;;
31306;SDS011;17935;51.120;13.132;2023-04-25T13:55:34;11.52;;;4.25;;
31306;SDS011;17935;51.120;13.132;2023-04-25T13:58:01;15.73;;;4.85;;
31306;SDS011;17935;51.120;13.132;2023-04-25T14:00:32;11.07;;;4.68;;
31306;SDS011;17935;51.120;13.132;2023-04-25T14:02:58;12.13;;;4.43;;
31306;SDS011;17935;51.120;13.132;2023-04-25T14:05:24;11.45;;;4.25;;
31306;SDS011;17935;51.120;13.132;2023-04-25T14:07:49;18.08;;;5.00;;
31306;SDS011;17935;51.120;13.132;2023-04-25T14:10:16;18.52;;;4.82;;
31306;SDS011;17935;51.120;13.132;2023-04-25T14:12:41;13.32;;;4.25;;
31306;SDS011;17935;51.120;13.132;2023-04-25T14:15:07;18.23;;;4.85;;
31306;SDS011;17935;51.120;13.132;2023-04-25T14:17:33;13.30;;;4.30;;
31306;SDS011;17935;51.120;13.132;2023-04-25T14:19:59;18.88;;;3.42;;
31306;SDS011;17935;51.120;13.132;2023-04-25T14:22:25;23.65;;;4.13;;
31306;SDS011;17935;51.120;13.132;2023-04-25T14:24:51;19.50;;;4.00;;
31306;SDS011;17935;51.120;13.132;2023-04-25T14:27:17;13.23;;;3.10;;